sensor_id;sensor_type;location;lat;lon;timestamp;temperature;humidity
71672;DHT22;67659;45.554;11.812;2023-08-06T00:00:20;21.20;99.90
71672;DHT22;67659;45.554;11.812;2023-08-06T00:02:46;21.20;99.90
71672;DHT22;67659;45.554;11.812;2023-08-06T00:05:12;21.10;99.90
71672;DHT22;67659;45.554;11.812;2023-08-06T00:07:38;21.30;99.90
71672;DHT22;67659;45.554;11.812;2023-08-06T00:10:04;21.20;99.90
71672;DHT22;67659;45.554;11.812;2023-08-06T00:12:30;21.30;99.90
71672;DHT22;67659;45.554;11.812;2023-08-06T00:14:56;21.30;99.90
71672;DHT22;67659;45.554;11.812;2023-08-06T00:17:22;21.30;99.90
71672;DHT22;67659;45.554;11.812;2023-08-06T00:19:48;21.30;99.90
71672;DHT22;67659;45.554;11.812;2023-08-06T00:22:13;21.40;99.90
71672;DHT22;67659;45.554;11.812;2023-08-06T00:24:39;21.50;99.90
71672;DHT22;67659;45.554;11.812;2023-08-06T00:27:05;21.50;99.90
71672;DHT22;67659;45.554;11.812;2023-08-06T00:29:31;21.50;99.90
71672;DHT22;67659;45.554;11.812;2023-08-06T00:31:56;21.40;99.90
71672;DHT22;67659;45.554;11.812;2023-08-06T00:34:22;21.30;99.90
71672;DHT22;67659;45.554;11.812;2023-08-06T00:36:48;21.40;99.90
71672;DHT22;67659;45.554;11.812;2023-08-06T00:39:14;21.50;99.90
71672;DHT22;67659;45.554;11.812;2023-08-06T00:41:40;21.50;99.90
71672;DHT22;67659;45.554;11.812;2023-08-06T00:44:05;21.50;99.90
71672;DHT22;67659;45.554;11.812;2023-08-06T00:46:32;21.50;99.90
71672;DHT22;67659;45.554;11.812;2023-08-06T00:48:59;21.50;99.90
71672;DHT22;67659;45.554;11.812;2023-08-06T00:51:25;21.50;99.90
71672;DHT22;67659;45.554;11.812;2023-08-06T00:53:52;21.50;99.90
71672;DHT22;67659;45.554;11.812;2023-08-06T00:56:19;21.50;99.90
71672;DHT22;67659;45.554;11.812;2023-08-06T00:58:45;21.50;99.90
71672;DHT22;67659;45.554;11.812;2023-08-06T01:01:11;21.50;99.90
71672;DHT22;67659;45.554;11.812;2023-08-06T01:03:38;21.50;99.90
71672;DHT22;67659;45.554;11.812;2023-08-06T01:06:04;21.50;99.90
71672;DHT22;67659;45.554;11.812;2023-08-06T01:11:33;21.50;99.90
71672;DHT22;67659;45.554;11.812;2023-08-06T01:14:11;21.50;99.90
71672;DHT22;67659;45.554;11.812;2023-08-06T01:16:39;21.50;99.90
71672;DHT22;67659;45.554;11.812;2023-08-06T01:19:18;21.60;99.90
71672;DHT22;67659;45.554;11.812;2023-08-06T01:21:48;21.60;99.90
71672;DHT22;67659;45.554;11.812;2023-08-06T01:24:13;21.50;99.90
71672;DHT22;67659;45.554;11.812;2023-08-06T01:26:45;21.60;99.90
71672;DHT22;67659;45.554;11.812;2023-08-06T01:29:28;21.50;99.90
71672;DHT22;67659;45.554;11.812;2023-08-06T01:31:58;21.60;99.90
71672;DHT22;67659;45.554;11.812;2023-08-06T01:34:27;21.60;99.90
71672;DHT22;67659;45.554;11.812;2023-08-06T01:36:56;21.60;99.90
71672;DHT22;67659;45.554;11.812;2023-08-06T01:39:23;21.60;99.90
71672;DHT22;67659;45.554;11.812;2023-08-06T01:41:49;21.60;99.90
71672;DHT22;67659;45.554;11.812;2023-08-06T01:44:16;21.80;99.90
71672;DHT22;67659;45.554;11.812;2023-08-06T01:46:42;21.90;99.90
71672;DHT22;67659;45.554;11.812;2023-08-06T01:49:07;21.90;99.90
71672;DHT22;67659;45.554;11.812;2023-08-06T01:51:33;21.70;99.90
71672;DHT22;67659;45.554;11.812;2023-08-06T01:53:59;21.80;99.90
71672;DHT22;67659;45.554;11.812;2023-08-06T01:56:25;21.80;99.90
71672;DHT22;67659;45.554;11.812;2023-08-06T01:58:51;21.80;99.90
71672;DHT22;67659;45.554;11.812;2023-08-06T02:01:16;21.70;99.90
71672;DHT22;67659;45.554;11.812;2023-08-06T02:03:42;21.70;99.90
71672;DHT22;67659;45.554;11.812;2023-08-06T02:06:08;21.70;99.90
71672;DHT22;67659;45.554;11.812;2023-08-06T02:08:34;21.80;99.90
71672;DHT22;67659;45.554;11.812;2023-08-06T02:10:59;21.80;99.90
71672;DHT22;67659;45.554;11.812;2023-08-06T02:13:25;21.90;99.90
71672;DHT22;67659;45.554;11.812;2023-08-06T02:15:51;21.80;99.90
71672;DHT22;67659;45.554;11.812;2023-08-06T02:18:17;22.00;99.90
71672;DHT22;67659;45.554;11.812;2023-08-06T02:20:43;22.00;99.90
71672;DHT22;67659;45.554;11.812;2023-08-06T02:23:09;21.90;99.90
71672;DHT22;67659;45.554;11.812;2023-08-06T02:25:35;22.10;99.90
71672;DHT22;67659;45.554;11.812;2023-08-06T02:28:01;22.10;99.90
71672;DHT22;67659;45.554;11.812;2023-08-06T02:30:27;21.80;99.90
71672;DHT22;67659;45.554;11.812;2023-08-06T02:32:53;21.60;99.90
71672;DHT22;67659;45.554;11.812;2023-08-06T02:35:19;21.70;99.90
71672;DHT22;67659;45.554;11.812;2023-08-06T02:37:45;21.60;99.90
71672;DHT22;67659;45.554;11.812;2023-08-06T02:40:16;21.70;99.90
71672;DHT22;67659;45.554;11.812;2023-08-06T02:42:44;21.60;99.90
71672;DHT22;67659;45.554;11.812;2023-08-06T02:45:10;21.80;99.90
71672;DHT22;67659;45.554;11.812;2023-08-06T02:47:36;21.90;99.90
71672;DHT22;67659;45.554;11.812;2023-08-06T02:50:16;22.00;99.90
71672;DHT22;67659;45.554;11.812;2023-08-06T02:52:42;21.80;99.90
71672;DHT22;67659;45.554;11.812;2023-08-06T02:55:08;21.80;99.90
71672;DHT22;67659;45.554;11.812;2023-08-06T02:57:34;21.70;99.90
71672;DHT22;67659;45.554;11.812;2023-08-06T02:59:59;21.70;99.90
71672;DHT22;67659;45.554;11.812;2023-08-06T03:02:25;21.50;99.90
71672;DHT22;67659;45.554;11.812;2023-08-06T03:04:51;21.60;99.90
71672;DHT22;67659;45.554;11.812;2023-08-06T03:07:17;21.60;99.90
71672;DHT22;67659;45.554;11.812;2023-08-06T03:09:43;21.70;99.90
71672;DHT22;67659;45.554;11.812;2023-08-06T03:12:08;21.70;99.90
71672;DHT22;67659;45.554;11.812;2023-08-06T03:14:34;21.70;99.90
71672;DHT22;67659;45.554;11.812;2023-08-06T03:17:00;21.70;99.90
71672;DHT22;67659;45.554;11.812;2023-08-06T03:19:26;21.80;99.90
71672;DHT22;67659;45.554;11.812;2023-08-06T03:21:52;21.60;99.90
71672;DHT22;67659;45.554;11.812;2023-08-06T03:24:18;21.70;99.90
71672;DHT22;67659;45.554;11.812;2023-08-06T03:26:43;21.70;99.90
71672;DHT22;67659;45.554;11.812;2023-08-06T03:29:09;21.70;99.90
71672;DHT22;67659;45.554;11.812;2023-08-06T03:31:35;21.70;99.90
71672;DHT22;67659;45.554;11.812;2023-08-06T03:34:01;21.70;99.90
71672;DHT22;67659;45.554;11.812;2023-08-06T03:36:27;21.80;99.90
71672;DHT22;67659;45.554;11.812;2023-08-06T03:38:53;21.90;99.90
71672;DHT22;67659;45.554;11.812;2023-08-06T03:41:19;21.80;99.90
71672;DHT22;67659;45.554;11.812;2023-08-06T03:43:44;21.90;99.90
71672;DHT22;67659;45.554;11.812;2023-08-06T03:46:10;21.80;99.90
71672;DHT22;67659;45.554;11.812;2023-08-06T03:48:36;21.80;99.90
71672;DHT22;67659;45.554;11.812;2023-08-06T03:51:02;21.80;99.90
71672;DHT22;67659;45.554;11.812;2023-08-06T03:53:28;21.80;99.90
71672;DHT22;67659;45.554;11.812;2023-08-06T03:55:54;21.70;99.90
71672;DHT22;67659;45.554;11.812;2023-08-06T03:58:21;21.50;99.90
71672;DHT22;67659;45.554;11.812;2023-08-06T04:00:47;21.50;99.90
71672;DHT22;67659;45.554;11.812;2023-08-06T04:03:12;21.50;99.90
71672;DHT22;67659;45.554;11.812;2023-08-06T04:05:39;21.60;99.90
71672;DHT22;67659;45.554;11.812;2023-08-06T04:08:05;21.70;99.90
71672;DHT22;67659;45.554;11.812;2023-08-06T04:10:31;21.70;99.90
71672;DHT22;67659;45.554;11.812;2023-08-06T04:12:56;21.70;99.90
71672;DHT22;67659;45.554;11.812;2023-08-06T04:15:22;21.70;99.90
71672;DHT22;67659;45.554;11.812;2023-08-06T04:17:49;21.70;99.90
71672;DHT22;67659;45.554;11.812;2023-08-06T04:20:14;21.60;99.90
71672;DHT22;67659;45.554;11.812;2023-08-06T04:22:40;21.30;99.90
71672;DHT22;67659;45.554;11.812;2023-08-06T04:25:06;21.30;99.90
71672;DHT22;67659;45.554;11.812;2023-08-06T04:27:32;21.50;99.90
71672;DHT22;67659;45.554;11.812;2023-08-06T04:29:58;21.40;99.90
71672;DHT22;67659;45.554;11.812;2023-08-06T04:32:24;21.50;99.90
71672;DHT22;67659;45.554;11.812;2023-08-06T04:34:51;21.50;99.90
71672;DHT22;67659;45.554;11.812;2023-08-06T04:37:17;21.50;99.90
71672;DHT22;67659;45.554;11.812;2023-08-06T04:39:43;21.50;99.90
71672;DHT22;67659;45.554;11.812;2023-08-06T04:42:09;21.50;99.90
71672;DHT22;67659;45.554;11.812;2023-08-06T04:44:35;21.50;99.90
71672;DHT22;67659;45.554;11.812;2023-08-06T04:47:00;21.50;99.90
71672;DHT22;67659;45.554;11.812;2023-08-06T04:49:26;21.60;99.90
71672;DHT22;67659;45.554;11.812;2023-08-06T08:28:27;28.60;84.80
71672;DHT22;67659;45.554;11.812;2023-08-06T08:30:54;28.90;83.10
71672;DHT22;67659;45.554;11.812;2023-08-06T08:33:41;29.00;83.10
71672;DHT22;67659;45.554;11.812;2023-08-06T08:36:07;29.50;84.60
71672;DHT22;67659;45.554;11.812;2023-08-06T08:38:32;29.70;83.00
71672;DHT22;67659;45.554;11.812;2023-08-06T08:40:58;29.80;82.80
71672;DHT22;67659;45.554;11.812;2023-08-06T08:43:24;29.40;81.20
71672;DHT22;67659;45.554;11.812;2023-08-06T08:45:51;29.30;83.90
71672;DHT22;67659;45.554;11.812;2023-08-06T08:48:18;29.50;80.80
71672;DHT22;67659;45.554;11.812;2023-08-06T08:50:47;29.10;80.40
71672;DHT22;67659;45.554;11.812;2023-08-06T08:53:16;29.60;82.40
71672;DHT22;67659;45.554;11.812;2023-08-06T08:55:43;30.40;81.80
71672;DHT22;67659;45.554;11.812;2023-08-06T08:58:10;31.20;77.90
71672;DHT22;67659;45.554;11.812;2023-08-06T09:00:36;30.90;80.90
71672;DHT22;67659;45.554;11.812;2023-08-06T09:03:06;30.60;78.50
71672;DHT22;67659;45.554;11.812;2023-08-06T09:05:32;30.90;79.40
71672;DHT22;67659;45.554;11.812;2023-08-06T09:08:03;31.30;79.80
71672;DHT22;67659;45.554;11.812;2023-08-06T09:10:30;31.90;76.50
71672;DHT22;67659;45.554;11.812;2023-08-06T09:12:57;32.30;75.90
71672;DHT22;67659;45.554;11.812;2023-08-06T09:15:24;32.70;75.40
71672;DHT22;67659;45.554;11.812;2023-08-06T09:17:52;32.00;75.60
71672;DHT22;67659;45.554;11.812;2023-08-06T09:20:18;32.10;76.50
71672;DHT22;67659;45.554;11.812;2023-08-06T09:22:45;32.60;74.90
71672;DHT22;67659;45.554;11.812;2023-08-06T09:25:21;32.40;73.80
71672;DHT22;67659;45.554;11.812;2023-08-06T09:27:50;32.20;75.00
71672;DHT22;67659;45.554;11.812;2023-08-06T09:30:33;31.90;74.30
71672;DHT22;67659;45.554;11.812;2023-08-06T09:33:00;31.70;76.40
71672;DHT22;67659;45.554;11.812;2023-08-06T09:35:31;31.80;74.70
71672;DHT22;67659;45.554;11.812;2023-08-06T09:38:08;31.30;77.70
71672;DHT22;67659;45.554;11.812;2023-08-06T09:40:35;31.30;76.30
71672;DHT22;67659;45.554;11.812;2023-08-06T09:43:02;30.80;77.60
71672;DHT22;67659;45.554;11.812;2023-08-06T09:45:32;30.80;77.00
71672;DHT22;67659;45.554;11.812;2023-08-06T09:48:00;31.00;78.70
71672;DHT22;67659;45.554;11.812;2023-08-06T09:50:30;31.70;75.60
71672;DHT22;67659;45.554;11.812;2023-08-06T09:52:58;31.10;76.70
71672;DHT22;67659;45.554;11.812;2023-08-06T09:55:25;31.00;77.70
71672;DHT22;67659;45.554;11.812;2023-08-06T09:57:52;31.40;77.50
71672;DHT22;67659;45.554;11.812;2023-08-06T10:00:19;31.20;76.50
71672;DHT22;67659;45.554;11.812;2023-08-06T10:02:46;31.00;78.50
71672;DHT22;67659;45.554;11.812;2023-08-06T10:05:12;30.70;76.50
71672;DHT22;67659;45.554;11.812;2023-08-06T10:07:38;30.40;79.30
71672;DHT22;67659;45.554;11.812;2023-08-06T10:10:06;30.60;78.10
71672;DHT22;67659;45.554;11.812;2023-08-06T10:12:35;30.90;77.00
71672;DHT22;67659;45.554;11.812;2023-08-06T10:15:06;31.10;77.70
71672;DHT22;67659;45.554;11.812;2023-08-06T10:17:34;30.80;76.10
71672;DHT22;67659;45.554;11.812;2023-08-06T10:20:03;31.00;77.90
71672;DHT22;67659;45.554;11.812;2023-08-06T10:22:33;31.50;80.00
71672;DHT22;67659;45.554;11.812;2023-08-06T10:25:00;31.90;76.90
71672;DHT22;67659;45.554;11.812;2023-08-06T10:27:40;32.10;76.50
71672;DHT22;67659;45.554;11.812;2023-08-06T10:30:30;32.40;73.90
71672;DHT22;67659;45.554;11.812;2023-08-06T10:33:02;32.60;76.40
71672;DHT22;67659;45.554;11.812;2023-08-06T10:35:28;32.90;75.30
71672;DHT22;67659;45.554;11.812;2023-08-06T10:37:59;33.20;75.60
71672;DHT22;67659;45.554;11.812;2023-08-06T10:40:25;33.00;74.10
71672;DHT22;67659;45.554;11.812;2023-08-06T10:42:51;32.60;73.90
71672;DHT22;67659;45.554;11.812;2023-08-06T10:45:18;32.60;76.20
71672;DHT22;67659;45.554;11.812;2023-08-06T10:47:45;32.50;75.00
71672;DHT22;67659;45.554;11.812;2023-08-06T10:50:13;33.10;74.30
71672;DHT22;67659;45.554;11.812;2023-08-06T10:52:39;33.40;73.70
71672;DHT22;67659;45.554;11.812;2023-08-06T10:55:06;33.60;75.50
71672;DHT22;67659;45.554;11.812;2023-08-06T10:57:32;33.50;72.80
71672;DHT22;67659;45.554;11.812;2023-08-06T10:59:57;33.80;74.10
71672;DHT22;67659;45.554;11.812;2023-08-06T11:02:23;33.90;75.30
71672;DHT22;67659;45.554;11.812;2023-08-06T11:04:49;33.90;70.40
71672;DHT22;67659;45.554;11.812;2023-08-06T11:07:16;33.90;73.80
71672;DHT22;67659;45.554;11.812;2023-08-06T11:09:42;33.50;74.80
71672;DHT22;67659;45.554;11.812;2023-08-06T11:12:11;33.00;74.30
71672;DHT22;67659;45.554;11.812;2023-08-06T11:14:38;32.20;75.50
71672;DHT22;67659;45.554;11.812;2023-08-06T11:17:05;32.10;75.40
71672;DHT22;67659;45.554;11.812;2023-08-06T11:19:31;32.20;77.90
71672;DHT22;67659;45.554;11.812;2023-08-06T11:21:57;32.70;75.90
71672;DHT22;67659;45.554;11.812;2023-08-06T11:24:26;33.00;75.10
71672;DHT22;67659;45.554;11.812;2023-08-06T11:26:52;33.30;74.10
71672;DHT22;67659;45.554;11.812;2023-08-06T11:29:18;33.70;74.30
71672;DHT22;67659;45.554;11.812;2023-08-06T11:31:44;33.70;73.30
71672;DHT22;67659;45.554;11.812;2023-08-06T11:34:10;33.60;73.80
71672;DHT22;67659;45.554;11.812;2023-08-06T11:36:41;33.80;70.50
71672;DHT22;67659;45.554;11.812;2023-08-06T11:39:07;34.00;69.60
71672;DHT22;67659;45.554;11.812;2023-08-06T11:41:33;34.10;72.00
71672;DHT22;67659;45.554;11.812;2023-08-06T11:43:59;34.20;72.20
71672;DHT22;67659;45.554;11.812;2023-08-06T11:46:25;34.20;72.00
71672;DHT22;67659;45.554;11.812;2023-08-06T11:48:56;34.00;70.30
71672;DHT22;67659;45.554;11.812;2023-08-06T11:51:24;33.50;74.10
71672;DHT22;67659;45.554;11.812;2023-08-06T11:53:57;33.40;74.30
71672;DHT22;67659;45.554;11.812;2023-08-06T11:56:24;33.50;71.50
71672;DHT22;67659;45.554;11.812;2023-08-06T11:58:51;33.00;73.80
71672;DHT22;67659;45.554;11.812;2023-08-06T12:01:18;32.90;72.70
71672;DHT22;67659;45.554;11.812;2023-08-06T12:03:44;33.20;74.00
71672;DHT22;67659;45.554;11.812;2023-08-06T12:06:10;33.40;74.60
71672;DHT22;67659;45.554;11.812;2023-08-06T12:08:36;32.80;72.60
71672;DHT22;67659;45.554;11.812;2023-08-06T12:11:03;32.60;75.00
71672;DHT22;67659;45.554;11.812;2023-08-06T12:13:29;32.10;75.70
71672;DHT22;67659;45.554;11.812;2023-08-06T12:15:55;32.20;74.90
71672;DHT22;67659;45.554;11.812;2023-08-06T12:18:23;32.10;75.30
71672;DHT22;67659;45.554;11.812;2023-08-06T12:20:49;31.50;74.90
71672;DHT22;67659;45.554;11.812;2023-08-06T12:23:14;30.80;76.20
71672;DHT22;67659;45.554;11.812;2023-08-06T12:25:41;30.30;76.60
71672;DHT22;67659;45.554;11.812;2023-08-06T12:28:07;30.60;75.00
71672;DHT22;67659;45.554;11.812;2023-08-06T12:30:34;30.80;76.20
71672;DHT22;67659;45.554;11.812;2023-08-06T12:33:00;31.10;76.00
71672;DHT22;67659;45.554;11.812;2023-08-06T12:35:26;31.10;75.60
71672;DHT22;67659;45.554;11.812;2023-08-06T12:37:52;31.00;76.00
71672;DHT22;67659;45.554;11.812;2023-08-06T12:40:22;31.00;76.20
71672;DHT22;67659;45.554;11.812;2023-08-06T12:42:50;30.80;77.60
71672;DHT22;67659;45.554;11.812;2023-08-06T12:45:16;31.20;77.00
71672;DHT22;67659;45.554;11.812;2023-08-06T12:47:42;31.30;78.30
71672;DHT22;67659;45.554;11.812;2023-08-06T12:50:08;31.40;77.70
71672;DHT22;67659;45.554;11.812;2023-08-06T12:52:34;31.90;76.50
71672;DHT22;67659;45.554;11.812;2023-08-06T12:55:00;32.30;76.50
71672;DHT22;67659;45.554;11.812;2023-08-06T12:57:26;32.30;75.50
71672;DHT22;67659;45.554;11.812;2023-08-06T12:59:52;32.50;76.30
71672;DHT22;67659;45.554;11.812;2023-08-06T13:02:18;32.50;76.20
71672;DHT22;67659;45.554;11.812;2023-08-06T13:04:46;32.60;74.40
71672;DHT22;67659;45.554;11.812;2023-08-06T13:07:12;32.30;75.50
71672;DHT22;67659;45.554;11.812;2023-08-06T13:09:37;32.20;74.50
71672;DHT22;67659;45.554;11.812;2023-08-06T13:12:03;32.20;74.60
71672;DHT22;67659;45.554;11.812;2023-08-06T13:14:31;32.00;75.80
71672;DHT22;67659;45.554;11.812;2023-08-06T18:34:58;24.00;83.30
71672;DHT22;67659;45.554;11.812;2023-08-06T18:37:25;24.00;82.60
71672;DHT22;67659;45.554;11.812;2023-08-06T18:39:51;23.80;81.90
71672;DHT22;67659;45.554;11.812;2023-08-06T18:42:17;23.50;82.20
71672;DHT22;67659;45.554;11.812;2023-08-06T18:44:43;23.70;81.90
71672;DHT22;67659;45.554;11.812;2023-08-06T18:47:09;23.70;81.70
71672;DHT22;67659;45.554;11.812;2023-08-06T18:49:34;23.70;82.60
71672;DHT22;67659;45.554;11.812;2023-08-06T18:52:00;23.70;82.40
71672;DHT22;67659;45.554;11.812;2023-08-06T18:54:26;23.60;82.60
71672;DHT22;67659;45.554;11.812;2023-08-06T18:56:52;23.50;84.30
71672;DHT22;67659;45.554;11.812;2023-08-06T18:59:18;23.50;84.40
71672;DHT22;67659;45.554;11.812;2023-08-06T19:01:47;23.50;84.60
71672;DHT22;67659;45.554;11.812;2023-08-06T19:04:13;23.30;85.20
71672;DHT22;67659;45.554;11.812;2023-08-06T19:06:39;23.50;85.40
71672;DHT22;67659;45.554;11.812;2023-08-06T19:09:05;23.50;85.90
71672;DHT22;67659;45.554;11.812;2023-08-06T19:11:31;23.50;85.80
71672;DHT22;67659;45.554;11.812;2023-08-06T19:13:57;23.30;86.50
71672;DHT22;67659;45.554;11.812;2023-08-06T19:16:23;23.20;87.40
71672;DHT22;67659;45.554;11.812;2023-08-06T19:18:58;23.20;87.60
71672;DHT22;67659;45.554;11.812;2023-08-06T19:21:25;22.90;89.10
71672;DHT22;67659;45.554;11.812;2023-08-06T19:23:50;23.00;90.30
71672;DHT22;67659;45.554;11.812;2023-08-06T19:26:16;22.70;91.80
71672;DHT22;67659;45.554;11.812;2023-08-06T19:28:42;22.90;91.60
71672;DHT22;67659;45.554;11.812;2023-08-06T19:31:08;23.10;91.10
71672;DHT22;67659;45.554;11.812;2023-08-06T19:33:34;23.20;91.20
71672;DHT22;67659;45.554;11.812;2023-08-06T19:36:00;23.40;90.40
71672;DHT22;67659;45.554;11.812;2023-08-06T19:38:25;23.50;90.80
71672;DHT22;67659;45.554;11.812;2023-08-06T19:41:04;23.60;89.40
71672;DHT22;67659;45.554;11.812;2023-08-06T19:43:30;23.70;89.50
71672;DHT22;67659;45.554;11.812;2023-08-06T19:45:56;23.80;89.40
71672;DHT22;67659;45.554;11.812;2023-08-06T19:48:24;23.70;88.80
71672;DHT22;67659;45.554;11.812;2023-08-06T19:50:55;23.90;88.90
71672;DHT22;67659;45.554;11.812;2023-08-06T19:53:31;23.70;91.60
71672;DHT22;67659;45.554;11.812;2023-08-06T19:56:08;23.20;95.80
71672;DHT22;67659;45.554;11.812;2023-08-06T19:58:34;23.00;98.20
71672;DHT22;67659;45.554;11.812;2023-08-06T20:01:01;22.80;99.90
71672;DHT22;67659;45.554;11.812;2023-08-06T20:03:29;22.70;99.90
71672;DHT22;67659;45.554;11.812;2023-08-06T20:05:59;22.70;99.90
71672;DHT22;67659;45.554;11.812;2023-08-06T20:08:24;22.00;99.90
71672;DHT22;67659;45.554;11.812;2023-08-06T20:10:50;22.90;97.20
71672;DHT22;67659;45.554;11.812;2023-08-06T20:13:19;22.30;99.90
71672;DHT22;67659;45.554;11.812;2023-08-06T20:15:48;21.90;99.90
71672;DHT22;67659;45.554;11.812;2023-08-06T20:18:15;22.00;99.90
71672;DHT22;67659;45.554;11.812;2023-08-06T20:21:01;22.10;99.90
71672;DHT22;67659;45.554;11.812;2023-08-06T20:23:27;22.40;99.90
71672;DHT22;67659;45.554;11.812;2023-08-06T20:25:53;22.20;99.90
71672;DHT22;67659;45.554;11.812;2023-08-06T20:28:19;22.30;99.90
71672;DHT22;67659;45.554;11.812;2023-08-06T20:30:44;22.30;99.90
71672;DHT22;67659;45.554;11.812;2023-08-06T20:33:11;22.50;99.90
71672;DHT22;67659;45.554;11.812;2023-08-06T20:35:38;22.50;99.90
71672;DHT22;67659;45.554;11.812;2023-08-06T20:38:04;22.60;99.90
71672;DHT22;67659;45.554;11.812;2023-08-06T20:40:30;22.70;99.20
71672;DHT22;67659;45.554;11.812;2023-08-06T20:42:56;22.80;97.60
71672;DHT22;67659;45.554;11.812;2023-08-06T20:45:22;22.80;95.50
71672;DHT22;67659;45.554;11.812;2023-08-06T20:47:47;22.80;95.50
71672;DHT22;67659;45.554;11.812;2023-08-06T20:50:13;22.80;96.80
71672;DHT22;67659;45.554;11.812;2023-08-06T20:52:39;22.70;96.60
71672;DHT22;67659;45.554;11.812;2023-08-06T20:55:05;22.70;96.90
71672;DHT22;67659;45.554;11.812;2023-08-06T20:57:31;22.50;96.10
71672;DHT22;67659;45.554;11.812;2023-08-06T20:59:56;22.60;95.60
71672;DHT22;67659;45.554;11.812;2023-08-06T21:02:24;22.70;94.30
71672;DHT22;67659;45.554;11.812;2023-08-06T21:04:50;22.70;93.40
71672;DHT22;67659;45.554;11.812;2023-08-06T21:07:17;22.80;93.60
71672;DHT22;67659;45.554;11.812;2023-08-06T21:09:43;22.60;93.40
71672;DHT22;67659;45.554;11.812;2023-08-06T21:12:09;22.70;93.40
71672;DHT22;67659;45.554;11.812;2023-08-06T21:14:35;22.60;93.00
71672;DHT22;67659;45.554;11.812;2023-08-06T21:17:01;22.70;92.40
71672;DHT22;67659;45.554;11.812;2023-08-06T21:19:26;22.70;93.70
71672;DHT22;67659;45.554;11.812;2023-08-06T21:21:52;22.60;94.60
71672;DHT22;67659;45.554;11.812;2023-08-06T21:24:18;22.50;94.50
71672;DHT22;67659;45.554;11.812;2023-08-06T21:26:44;22.30;94.00
71672;DHT22;67659;45.554;11.812;2023-08-06T21:29:09;22.30;94.50
71672;DHT22;67659;45.554;11.812;2023-08-06T21:31:35;22.30;94.90
71672;DHT22;67659;45.554;11.812;2023-08-06T21:34:01;22.30;95.10
71672;DHT22;67659;45.554;11.812;2023-08-06T21:36:27;22.20;94.70
71672;DHT22;67659;45.554;11.812;2023-08-06T21:38:55;22.10;95.30
71672;DHT22;67659;45.554;11.812;2023-08-06T21:41:20;22.20;96.00
71672;DHT22;67659;45.554;11.812;2023-08-06T21:43:47;22.10;96.50
71672;DHT22;67659;45.554;11.812;2023-08-06T21:46:15;22.10;97.50
71672;DHT22;67659;45.554;11.812;2023-08-06T21:48:44;22.00;97.30
71672;DHT22;67659;45.554;11.812;2023-08-06T21:51:13;21.90;97.20
71672;DHT22;67659;45.554;11.812;2023-08-06T21:53:40;21.90;98.50
71672;DHT22;67659;45.554;11.812;2023-08-06T21:56:11;22.00;97.40
71672;DHT22;67659;45.554;11.812;2023-08-06T21:58:46;21.90;98.00
71672;DHT22;67659;45.554;11.812;2023-08-06T22:01:12;21.90;98.50
71672;DHT22;67659;45.554;11.812;2023-08-06T22:03:40;21.90;98.90
71672;DHT22;67659;45.554;11.812;2023-08-06T22:06:07;21.90;99.00
71672;DHT22;67659;45.554;11.812;2023-08-06T22:08:33;21.80;98.50
71672;DHT22;67659;45.554;11.812;2023-08-06T22:10:59;21.90;99.90
71672;DHT22;67659;45.554;11.812;2023-08-06T22:13:25;21.90;99.90
71672;DHT22;67659;45.554;11.812;2023-08-06T22:15:51;21.90;99.40
71672;DHT22;67659;45.554;11.812;2023-08-06T22:18:18;21.80;99.40
71672;DHT22;67659;45.554;11.812;2023-08-06T22:20:45;21.70;99.90
71672;DHT22;67659;45.554;11.812;2023-08-06T22:23:11;21.80;99.90
71672;DHT22;67659;45.554;11.812;2023-08-06T22:25:37;21.90;99.40
71672;DHT22;67659;45.554;11.812;2023-08-06T22:28:03;21.90;99.90
71672;DHT22;67659;45.554;11.812;2023-08-06T22:30:29;21.90;99.90
71672;DHT22;67659;45.554;11.812;2023-08-06T22:32:55;21.80;99.90
71672;DHT22;67659;45.554;11.812;2023-08-06T22:35:20;21.60;99.90
71672;DHT22;67659;45.554;11.812;2023-08-06T22:37:47;21.60;99.90
71672;DHT22;67659;45.554;11.812;2023-08-06T22:40:17;21.50;99.90
71672;DHT22;67659;45.554;11.812;2023-08-06T22:42:43;21.50;99.90
71672;DHT22;67659;45.554;11.812;2023-08-06T22:45:12;21.50;99.90
71672;DHT22;67659;45.554;11.812;2023-08-06T22:47:42;21.50;99.90
71672;DHT22;67659;45.554;11.812;2023-08-06T22:50:09;21.40;99.90
71672;DHT22;67659;45.554;11.812;2023-08-06T22:52:35;21.00;99.90
71672;DHT22;67659;45.554;11.812;2023-08-06T22:55:02;20.70;99.90
71672;DHT22;67659;45.554;11.812;2023-08-06T22:57:28;20.80;99.90
71672;DHT22;67659;45.554;11.812;2023-08-06T22:59:54;20.90;99.90
71672;DHT22;67659;45.554;11.812;2023-08-06T23:02:20;20.80;99.90
71672;DHT22;67659;45.554;11.812;2023-08-06T23:04:46;20.70;99.90
71672;DHT22;67659;45.554;11.812;2023-08-06T23:07:12;20.90;99.90
71672;DHT22;67659;45.554;11.812;2023-08-06T23:09:38;21.00;99.90
71672;DHT22;67659;45.554;11.812;2023-08-06T23:12:04;21.10;99.90
71672;DHT22;67659;45.554;11.812;2023-08-06T23:14:33;21.30;99.90
71672;DHT22;67659;45.554;11.812;2023-08-06T23:16:59;21.30;99.90
71672;DHT22;67659;45.554;11.812;2023-08-06T23:19:25;21.30;99.90
71672;DHT22;67659;45.554;11.812;2023-08-06T23:21:51;21.30;99.90
71672;DHT22;67659;45.554;11.812;2023-08-06T23:24:17;21.40;99.90
71672;DHT22;67659;45.554;11.812;2023-08-06T23:26:42;21.30;99.90
71672;DHT22;67659;45.554;11.812;2023-08-06T23:29:08;21.30;99.90
71672;DHT22;67659;45.554;11.812;2023-08-06T23:31:34;21.20;99.90
71672;DHT22;67659;45.554;11.812;2023-08-06T23:34:00;21.20;99.90
71672;DHT22;67659;45.554;11.812;2023-08-06T23:36:26;21.10;99.90
71672;DHT22;67659;45.554;11.812;2023-08-06T23:38:52;21.10;99.90
71672;DHT22;67659;45.554;11.812;2023-08-06T23:41:21;21.10;99.90
71672;DHT22;67659;45.554;11.812;2023-08-06T23:43:47;21.10;99.90
71672;DHT22;67659;45.554;11.812;2023-08-06T23:46:12;21.00;99.90
71672;DHT22;67659;45.554;11.812;2023-08-06T23:48:38;21.10;99.90
71672;DHT22;67659;45.554;11.812;2023-08-06T23:51:04;21.10;99.90
71672;DHT22;67659;45.554;11.812;2023-08-06T23:53:30;21.20;99.90
71672;DHT22;67659;45.554;11.812;2023-08-06T23:55:56;21.20;99.90
71672;DHT22;67659;45.554;11.812;2023-08-06T23:58:22;21.30;99.90
